createdAt,value
2023-04-19T00:00:12.262Z,15.00
2023-04-19T00:02:41.554Z,15.00
2023-04-19T00:05:13.654Z,15.00
2023-04-19T00:07:41.388Z,15.00
2023-04-19T00:10:09.230Z,15.00
2023-04-19T00:12:36.658Z,15.00
2023-04-19T00:15:04.427Z,15.00
2023-04-19T00:17:31.870Z,15.00
2023-04-19T00:19:59.255Z,15.00
2023-04-19T00:22:29.208Z,14.90
2023-04-19T00:24:58.937Z,14.90
2023-04-19T00:27:26.546Z,14.90
2023-04-19T00:29:53.916Z,14.90
2023-04-19T00:32:21.245Z,14.90
2023-04-19T00:34:53.529Z,14.90
2023-04-19T00:37:21.064Z,14.90
2023-04-19T00:39:48.364Z,14.90
2023-04-19T00:42:17.979Z,14.90
2023-04-19T00:44:47.587Z,14.90
2023-04-19T00:47:15.061Z,15.00
2023-04-19T00:49:42.403Z,14.90
2023-04-19T00:52:12.930Z,15.00
2023-04-19T00:54:43.405Z,14.90
2023-04-19T00:57:13.184Z,15.00
2023-04-19T00:59:40.679Z,14.90
2023-04-19T01:02:09.145Z,15.00
2023-04-19T01:04:37.141Z,15.00
2023-04-19T01:07:04.823Z,14.90
2023-04-19T01:09:32.132Z,14.90
2023-04-19T01:12:02.090Z,15.00
2023-04-19T01:14:29.381Z,15.00
2023-04-19T01:16:57.785Z,14.90
2023-04-19T01:19:27.268Z,15.00
2023-04-19T01:21:56.405Z,15.00
2023-04-19T01:24:23.741Z,15.00
2023-04-19T01:26:51.017Z,14.90
2023-04-19T01:29:18.910Z,14.90
2023-04-19T01:31:51.348Z,14.90
2023-04-19T01:34:18.697Z,14.90
2023-04-19T01:36:46.312Z,14.90
2023-04-19T01:39:18.344Z,14.90
2023-04-19T01:41:45.638Z,14.90
2023-04-19T01:44:13.004Z,14.90
2023-04-19T01:46:42.755Z,14.90
2023-04-19T01:49:12.584Z,14.90
2023-04-19T01:51:40.468Z,14.90
2023-04-19T01:54:07.783Z,14.90
2023-04-19T01:56:35.126Z,14.80
2023-04-19T01:59:02.512Z,14.90
2023-04-19T02:01:30.581Z,14.90
2023-04-19T02:03:57.971Z,14.80
2023-04-19T02:06:26.952Z,14.80
2023-04-19T02:08:56.967Z,14.80
2023-04-19T02:11:24.229Z,14.80
2023-04-19T02:13:53.845Z,14.80
2023-04-19T02:16:21.171Z,14.80
2023-04-19T02:18:49.318Z,14.80
2023-04-19T02:21:16.674Z,14.80
2023-04-19T02:23:46.222Z,14.70
2023-04-19T02:26:15.887Z,14.70
2023-04-19T02:28:43.180Z,14.70
2023-04-19T02:31:10.495Z,14.70
2023-04-19T02:33:37.772Z,14.70
2023-04-19T02:36:05.328Z,14.70
2023-04-19T02:38:32.637Z,14.70
2023-04-19T02:41:04.353Z,14.70
2023-04-19T02:43:34.167Z,14.70
2023-04-19T02:46:02.139Z,14.70
2023-04-19T02:48:29.577Z,14.70
2023-04-19T02:50:56.953Z,14.70
2023-04-19T02:53:26.417Z,14.70
2023-04-19T02:55:53.754Z,14.60
2023-04-19T02:58:21.002Z,14.60
2023-04-19T03:00:48.417Z,14.60
2023-04-19T03:03:16.143Z,14.60
2023-04-19T03:05:43.558Z,14.60
2023-04-19T03:08:11.536Z,14.60
2023-04-19T03:10:38.884Z,14.60
2023-04-19T03:13:08.419Z,14.60
2023-04-19T03:15:35.668Z,14.70
2023-04-19T03:18:05.219Z,14.70
2023-04-19T03:20:34.890Z,14.70
2023-04-19T03:23:02.446Z,14.70
2023-04-19T03:25:29.852Z,14.70
2023-04-19T03:27:59.661Z,14.70
2023-04-19T03:30:26.911Z,14.70
2023-04-19T03:32:54.233Z,14.70
2023-04-19T03:35:22.454Z,14.70
2023-04-19T03:37:49.696Z,14.70
2023-04-19T03:40:18.313Z,14.70
2023-04-19T03:42:47.849Z,14.70
2023-04-19T03:45:15.126Z,14.70
2023-04-19T03:47:42.425Z,14.60
2023-04-19T03:50:10.045Z,14.60
2023-04-19T03:52:37.421Z,14.60
2023-04-19T03:55:07.314Z,14.60
2023-04-19T03:57:34.701Z,14.60
2023-04-19T04:00:01.954Z,14.50
2023-04-19T04:02:29.529Z,14.50
2023-04-19T04:04:56.985Z,14.50
2023-04-19T04:07:24.752Z,14.50
2023-04-19T04:09:52.083Z,14.50
2023-04-19T04:12:19.558Z,14.50
2023-04-19T04:14:46.762Z,14.50
2023-04-19T04:17:16.415Z,14.50
2023-04-19T04:19:46.028Z,14.40
2023-04-19T04:22:13.273Z,14.40
2023-04-19T04:24:41.917Z,14.40
2023-04-19T04:27:14.941Z,14.40
2023-04-19T04:29:43.922Z,14.50
2023-04-19T04:32:11.480Z,14.50
2023-04-19T04:34:39.564Z,14.50
2023-04-19T04:37:08.808Z,14.50
2023-04-19T04:39:39.385Z,14.50
2023-04-19T04:42:10.162Z,14.50
2023-04-19T04:44:38.962Z,14.50
2023-04-19T04:47:08.607Z,14.50
2023-04-19T04:49:36.407Z,14.50
2023-04-19T04:52:06.631Z,14.50
2023-04-19T04:54:36.364Z,14.50
2023-04-19T04:57:04.076Z,14.50
2023-04-19T04:59:31.611Z,14.50
2023-04-19T05:01:59.130Z,14.50
2023-04-19T05:04:26.696Z,14.50
2023-04-19T05:06:54.146Z,14.50
2023-04-19T05:09:23.902Z,14.50
2023-04-19T05:11:51.192Z,14.60
2023-04-19T05:14:18.466Z,14.60
2023-04-19T05:16:46.295Z,14.60
2023-04-19T05:19:13.638Z,14.60
2023-04-19T05:21:40.858Z,14.60
2023-04-19T05:24:10.044Z,14.60
2023-04-19T05:26:37.284Z,14.60
2023-04-19T05:29:04.543Z,14.60
2023-04-19T05:31:34.863Z,14.60
2023-04-19T05:34:04.381Z,14.60
2023-04-19T05:36:33.959Z,14.70
2023-04-19T05:39:01.428Z,14.70
2023-04-19T05:41:31.109Z,14.70
2023-04-19T05:43:58.408Z,14.70
2023-04-19T05:46:25.712Z,14.70
2023-04-19T05:48:52.974Z,14.70
2023-04-19T05:51:20.314Z,14.70
2023-04-19T05:53:47.625Z,14.70
2023-04-19T05:56:14.936Z,14.80
2023-04-19T05:58:45.109Z,14.80
2023-04-19T06:01:12.680Z,14.80
2023-04-19T06:03:40.276Z,14.80
2023-04-19T06:06:08.528Z,14.80
2023-04-19T06:08:36.111Z,14.80
2023-04-19T06:11:15.189Z,14.80
2023-04-19T06:13:50.941Z,14.80
2023-04-19T06:16:20.961Z,14.80
2023-04-19T06:18:48.322Z,14.80
2023-04-19T06:21:18.176Z,14.90
2023-04-19T06:23:49.013Z,14.90
2023-04-19T06:26:18.956Z,14.90
2023-04-19T06:28:46.296Z,14.90
2023-04-19T06:31:18.587Z,14.90
2023-04-19T06:33:46.836Z,14.90
2023-04-19T06:36:16.442Z,14.90
2023-04-19T06:38:44.710Z,15.00
2023-04-19T06:41:12.658Z,15.00
2023-04-19T06:43:42.924Z,15.00
2023-04-19T06:46:10.472Z,15.00
2023-04-19T06:48:38.407Z,15.00
2023-04-19T06:51:05.982Z,15.00
2023-04-19T06:53:33.348Z,15.10
2023-04-19T06:56:04.735Z,15.10
2023-04-19T06:58:34.480Z,15.10
2023-04-19T07:01:05.119Z,15.10
2023-04-19T07:03:36.393Z,15.20
2023-04-19T07:06:04.018Z,15.20
2023-04-19T07:08:48.263Z,15.20
2023-04-19T07:11:16.951Z,15.20
2023-04-19T07:13:46.681Z,15.20
2023-04-19T07:16:14.934Z,15.20
2023-04-19T07:18:42.441Z,15.20
2023-04-19T07:21:10.560Z,15.20
2023-04-19T07:23:40.484Z,15.30
2023-04-19T07:26:10.386Z,15.30
2023-04-19T07:28:39.746Z,15.30
2023-04-19T07:31:18.334Z,15.30
2023-04-19T07:33:47.357Z,15.40
2023-04-19T07:36:14.714Z,15.40
2023-04-19T07:38:42.047Z,15.40
2023-04-19T07:41:11.819Z,15.50
2023-04-19T07:43:39.393Z,15.50
2023-04-19T07:46:16.441Z,15.50
2023-04-19T07:48:43.791Z,15.50
2023-04-19T07:51:17.636Z,15.60
2023-04-19T07:53:47.748Z,15.60
2023-04-19T07:56:15.672Z,15.60
2023-04-19T07:58:43.886Z,15.60
2023-04-19T08:01:11.598Z,15.60
2023-04-19T08:03:39.108Z,15.60
2023-04-19T08:06:12.826Z,15.60
2023-04-19T08:08:40.148Z,15.60
2023-04-19T08:11:07.472Z,15.70
2023-04-19T08:13:34.935Z,15.70
2023-04-19T08:18:34.062Z,15.70
2023-04-19T08:21:01.434Z,15.70
2023-04-19T08:23:34.905Z,15.80
2023-04-19T08:26:08.841Z,15.80
2023-04-19T08:28:38.680Z,15.80
2023-04-19T08:31:08.930Z,15.80
2023-04-19T08:33:38.819Z,15.90
2023-04-19T08:36:07.192Z,15.90
2023-04-19T08:38:34.466Z,15.90
2023-04-19T08:41:01.843Z,15.90
2023-04-19T08:43:33.619Z,15.90
2023-04-19T08:46:04.758Z,15.90
2023-04-19T08:48:36.766Z,15.90
2023-04-19T08:51:05.966Z,15.90
2023-04-19T08:53:37.091Z,16.00
2023-04-19T08:56:17.897Z,16.00
2023-04-19T08:59:01.032Z,16.00
2023-04-19T09:01:44.758Z,16.00
2023-04-19T09:04:34.822Z,15.90
2023-04-19T09:07:02.059Z,15.90
2023-04-19T09:12:01.539Z,15.90
2023-04-19T09:14:31.534Z,15.90
2023-04-19T09:17:16.774Z,15.90
2023-04-19T09:19:48.430Z,15.90
2023-04-19T09:22:18.284Z,15.90
2023-04-19T09:25:27.715Z,15.80
2023-04-19T09:27:37.353Z,15.80
2023-04-19T09:30:17.516Z,15.80
2023-04-19T09:32:51.013Z,15.80
2023-04-19T09:35:18.424Z,15.80
2023-04-19T09:38:06.440Z,15.80
2023-04-19T09:40:35.021Z,15.80
2023-04-19T09:43:22.947Z,15.80
2023-04-19T09:45:53.324Z,15.80
2023-04-19T09:48:23.459Z,15.80
2023-04-19T09:51:05.743Z,15.70
2023-04-19T09:53:40.696Z,15.80
2023-04-19T09:56:12.905Z,15.70
2023-04-19T09:58:52.586Z,15.70
2023-04-19T10:01:29.797Z,15.80
2023-04-19T10:04:03.519Z,15.70
2023-04-19T10:06:58.217Z,15.70
2023-04-19T10:09:26.612Z,15.80
2023-04-19T10:12:03.735Z,15.70
2023-04-19T10:14:40.432Z,15.70
2023-04-19T10:17:07.756Z,15.80
2023-04-19T10:19:37.551Z,15.70
2023-04-19T10:22:07.852Z,15.70
2023-04-19T10:24:35.115Z,15.70
2023-04-19T10:27:14.864Z,15.70
2023-04-19T10:29:55.763Z,15.70
2023-04-19T10:32:25.027Z,15.60
2023-04-19T10:34:56.244Z,15.60
2023-04-19T10:37:26.020Z,15.60
2023-04-19T10:39:53.409Z,15.60
2023-04-19T10:42:20.715Z,15.50
2023-04-19T10:45:32.171Z,15.50
2023-04-19T10:48:04.834Z,15.40
2023-04-19T10:51:24.229Z,15.50
2023-04-19T10:54:05.087Z,15.40
2023-04-19T10:56:35.367Z,15.40
2023-04-19T10:59:08.510Z,15.40
2023-04-19T11:01:46.295Z,15.40
2023-04-19T11:04:21.501Z,15.40
2023-04-19T11:06:52.366Z,15.30
2023-04-19T11:09:34.738Z,15.40
2023-04-19T11:12:02.295Z,15.40
2023-04-19T11:14:33.165Z,15.30
2023-04-19T11:17:04.482Z,15.40
2023-04-19T11:19:31.792Z,15.30
2023-04-19T11:22:01.323Z,15.40
2023-04-19T11:24:31.045Z,15.40
2023-04-19T11:26:58.314Z,15.40
2023-04-19T11:29:25.642Z,15.40
2023-04-19T11:31:54.901Z,15.40
2023-04-19T11:34:27.286Z,15.40
2023-04-19T11:36:54.628Z,15.40
2023-04-19T11:39:24.551Z,15.50
2023-04-19T11:41:51.845Z,15.40
2023-04-19T11:44:20.907Z,15.50
2023-04-19T11:46:59.240Z,15.40
2023-04-19T11:49:36.344Z,15.40
2023-04-19T11:52:06.648Z,15.40
2023-04-19T11:54:34.182Z,15.40
2023-04-19T11:57:06.931Z,15.40
2023-04-19T11:59:36.224Z,15.40
2023-04-19T12:02:06.500Z,15.40
2023-04-19T12:04:34.173Z,15.30
2023-04-19T12:07:03.205Z,15.40
2023-04-19T12:09:32.859Z,15.40
2023-04-19T12:12:03.081Z,15.40
2023-04-19T12:14:32.311Z,15.40
2023-04-19T12:17:05.650Z,15.40
2023-04-19T12:19:44.578Z,15.30
2023-04-19T12:22:28.798Z,15.30
2023-04-19T12:24:56.086Z,15.30
2023-04-19T12:27:26.477Z,15.30
2023-04-19T12:29:54.006Z,15.30
2023-04-19T12:32:26.616Z,15.30
2023-04-19T12:34:56.551Z,15.30
2023-04-19T12:37:24.572Z,15.40
2023-04-19T12:39:51.833Z,15.40
2023-04-19T12:42:21.495Z,15.40
2023-04-19T12:44:51.272Z,15.30
2023-04-19T12:47:18.911Z,15.30
2023-04-19T12:49:46.309Z,15.30
2023-04-19T12:52:13.626Z,15.30
2023-04-19T12:54:41.479Z,15.30
2023-04-19T12:57:08.829Z,15.30
2023-04-19T12:59:36.281Z,15.30
2023-04-19T13:02:03.660Z,15.30
2023-04-19T13:04:31.240Z,15.30
2023-04-19T13:07:01.406Z,15.20
2023-04-19T13:09:29.083Z,15.20
2023-04-19T13:11:56.455Z,15.10
2023-04-19T13:14:24.447Z,15.10
2023-04-19T13:16:54.101Z,15.00
2023-04-19T13:19:21.688Z,15.00
2023-04-19T13:21:51.332Z,14.90
2023-04-19T13:24:18.882Z,14.80
2023-04-19T13:26:46.422Z,14.80
2023-04-19T13:29:13.908Z,14.70
2023-04-19T13:31:43.621Z,14.70
2023-04-19T13:34:11.208Z,14.70
2023-04-19T13:36:41.113Z,14.70
2023-04-19T13:39:10.900Z,14.70
2023-04-19T13:41:38.287Z,14.60
2023-04-19T13:44:07.855Z,14.60
2023-04-19T13:46:37.651Z,14.60
2023-04-19T13:49:05.446Z,14.60
2023-04-19T13:51:46.917Z,14.60
2023-04-19T13:54:19.614Z,14.50
2023-04-19T13:56:52.140Z,14.50
2023-04-19T13:59:20.873Z,14.50
2023-04-19T14:01:48.172Z,14.40
2023-04-19T14:04:16.012Z,14.40
2023-04-19T14:06:46.001Z,14.40
2023-04-19T14:09:15.709Z,14.40
2023-04-19T14:11:43.293Z,14.30
2023-04-19T14:14:18.079Z,14.30
2023-04-19T14:16:48.726Z,14.30
2023-04-19T14:19:16.006Z,14.20
2023-04-19T14:21:43.309Z,14.20
2023-04-19T14:24:10.516Z,14.20
2023-04-19T14:26:37.781Z,14.20
2023-04-19T14:29:06.142Z,14.10
2023-04-19T14:31:35.076Z,14.10
2023-04-19T14:34:04.938Z,14.10
2023-04-19T14:36:32.429Z,14.10
2023-04-19T14:38:59.750Z,14.10
2023-04-19T14:41:27.011Z,14.10
2023-04-19T14:43:56.162Z,14.00
2023-04-19T14:46:23.445Z,14.00
2023-04-19T14:48:50.864Z,14.00
2023-04-19T14:51:18.157Z,13.90
2023-04-19T14:53:45.588Z,13.90
2023-04-19T14:56:12.885Z,13.90
2023-04-19T14:58:40.420Z,13.90
2023-04-19T15:01:14.176Z,13.80
2023-04-19T15:03:44.464Z,13.90
2023-04-19T15:06:11.927Z,13.80
2023-04-19T15:08:39.258Z,13.80
2023-04-19T15:11:11.359Z,13.80
2023-04-19T15:13:38.620Z,13.90
2023-04-19T15:16:07.710Z,13.90
2023-04-19T15:18:37.953Z,13.90
2023-04-19T15:21:11.120Z,13.90
2023-04-19T15:23:38.334Z,13.90
2023-04-19T15:26:07.995Z,13.90
2023-04-19T15:28:36.212Z,13.90
2023-04-19T15:31:05.185Z,13.90
2023-04-19T15:33:33.165Z,13.90
2023-04-19T15:36:01.695Z,13.90
2023-04-19T15:38:31.222Z,13.90
2023-04-19T15:40:59.430Z,13.90
2023-04-19T15:43:31.611Z,13.90
2023-04-19T15:45:59.133Z,13.90
2023-04-19T15:48:26.875Z,13.90
2023-04-19T15:50:54.192Z,13.90
2023-04-19T15:53:21.470Z,13.90
2023-04-19T15:55:48.829Z,13.80
2023-04-19T15:58:16.154Z,13.80
2023-04-19T16:00:43.520Z,13.80
2023-04-19T16:03:12.528Z,13.90
2023-04-19T16:05:40.236Z,13.80
2023-04-19T16:08:11.791Z,13.90
2023-04-19T16:10:39.388Z,13.80
2023-04-19T16:13:07.157Z,13.80
2023-04-19T16:15:34.419Z,13.80
2023-04-19T16:18:01.734Z,13.80
2023-04-19T16:20:29.162Z,13.90
2023-04-19T16:23:02.769Z,13.80
2023-04-19T16:25:31.127Z,13.80
2023-04-19T16:27:58.736Z,13.80
2023-04-19T16:30:27.002Z,13.80
2023-04-19T16:32:55.386Z,13.80
2023-04-19T16:35:23.703Z,13.70
2023-04-19T16:37:51.308Z,13.70
2023-04-19T16:40:21.050Z,13.70
2023-04-19T16:42:50.648Z,13.70
2023-04-19T16:45:20.097Z,13.70
2023-04-19T16:47:49.959Z,13.70
2023-04-19T16:50:17.267Z,13.70
2023-04-19T16:52:44.510Z,13.60
2023-04-19T16:55:11.854Z,13.60
2023-04-19T16:57:39.100Z,13.60
2023-04-19T17:00:07.044Z,13.60
2023-04-19T17:02:34.506Z,13.60
2023-04-19T17:05:02.268Z,13.60
2023-04-19T17:07:31.943Z,13.60
2023-04-19T17:09:59.192Z,13.50
2023-04-19T17:12:26.431Z,13.50
2023-04-19T17:14:56.261Z,13.50
2023-04-19T17:17:24.517Z,13.40
2023-04-19T17:19:56.030Z,13.40
2023-04-19T17:22:28.500Z,13.30
2023-04-19T17:24:57.383Z,13.30
2023-04-19T17:27:24.996Z,13.30
2023-04-19T17:29:52.265Z,13.30
2023-04-19T17:32:19.603Z,13.30
2023-04-19T17:34:46.834Z,13.20
2023-04-19T17:37:14.143Z,13.20
2023-04-19T17:39:41.437Z,13.20
2023-04-19T17:42:08.738Z,13.20
2023-04-19T17:44:36.651Z,13.20
2023-04-19T17:47:06.100Z,13.10
2023-04-19T17:49:33.627Z,13.10
2023-04-19T17:52:00.881Z,13.10
2023-04-19T17:54:30.667Z,13.00
2023-04-19T17:56:59.462Z,13.00
2023-04-19T17:59:26.766Z,13.00
2023-04-19T18:02:01.385Z,13.00
2023-04-19T18:04:31.091Z,13.00
2023-04-19T18:06:58.491Z,12.90
2023-04-19T18:09:25.806Z,12.90
2023-04-19T18:11:53.212Z,12.90
2023-04-19T18:14:20.489Z,12.90
2023-04-19T18:16:47.911Z,12.90
2023-04-19T18:19:15.600Z,12.90
2023-04-19T18:21:47.319Z,12.90
2023-04-19T18:24:15.449Z,12.80
2023-04-19T18:26:43.135Z,12.80
2023-04-19T18:29:16.229Z,12.80
2023-04-19T18:31:46.445Z,12.90
2023-04-19T18:34:13.920Z,12.80
2023-04-19T18:36:43.741Z,12.80
2023-04-19T18:39:13.985Z,12.80
2023-04-19T18:41:41.469Z,12.80
2023-04-19T18:44:39.152Z,12.80
2023-04-19T18:47:00.834Z,12.80
2023-04-19T18:49:28.001Z,12.80
2023-04-19T18:51:57.474Z,12.80
2023-04-19T18:54:24.869Z,12.80
2023-04-19T18:59:25.486Z,12.70
2023-04-19T19:01:53.567Z,12.70
2023-04-19T19:06:54.742Z,12.70
2023-04-19T19:09:25.525Z,12.70
2023-04-19T19:11:56.923Z,12.70
2023-04-19T19:14:26.644Z,12.70
2023-04-19T19:16:57.368Z,12.70
2023-04-19T19:19:24.746Z,12.70
2023-04-19T19:21:54.428Z,12.70
2023-04-19T19:24:21.677Z,12.70
2023-04-19T19:26:49.048Z,12.70
2023-04-19T19:29:17.174Z,12.70
2023-04-19T19:31:44.565Z,12.70
2023-04-19T19:34:25.756Z,12.70
2023-04-19T19:36:58.588Z,12.70
2023-04-19T19:39:28.006Z,12.70
2023-04-19T19:42:05.953Z,12.70
2023-04-19T19:44:36.522Z,12.70
2023-04-19T19:47:10.331Z,12.70
2023-04-19T19:52:10.953Z,12.70
2023-04-19T19:54:38.228Z,12.70
2023-04-19T19:58:07.153Z,12.70
2023-04-19T20:00:18.041Z,12.70
2023-04-19T20:02:54.606Z,12.70
2023-04-19T20:05:26.433Z,12.80
2023-04-19T20:08:06.161Z,12.70
2023-04-19T20:10:33.599Z,12.70
2023-04-19T20:13:01.603Z,12.70
2023-04-19T20:15:30.183Z,12.70
2023-04-19T20:17:57.622Z,12.70
2023-04-19T20:20:24.960Z,12.70
2023-04-19T20:22:52.418Z,12.70
2023-04-19T20:25:22.074Z,12.70
2023-04-19T20:27:51.832Z,12.70
2023-04-19T20:30:19.182Z,12.70
2023-04-19T20:32:50.456Z,12.70
2023-04-19T20:35:18.240Z,12.70
2023-04-19T20:37:47.222Z,12.70
2023-04-19T20:40:16.183Z,12.70
2023-04-19T20:42:46.894Z,12.70
2023-04-19T20:45:14.520Z,12.70
2023-04-19T20:47:42.825Z,12.70
2023-04-19T20:50:10.926Z,12.70
2023-04-19T20:52:38.380Z,12.60
2023-04-19T20:55:11.171Z,12.60
2023-04-19T20:57:38.456Z,12.70
2023-04-19T21:00:09.853Z,12.60
2023-04-19T21:02:37.302Z,12.60
2023-04-19T21:05:07.377Z,12.60
2023-04-19T21:07:34.696Z,12.60
2023-04-19T21:10:01.995Z,12.60
2023-04-19T21:12:29.323Z,12.60
2023-04-19T21:14:56.535Z,12.60
2023-04-19T21:17:26.244Z,12.60
2023-04-19T21:19:53.580Z,12.60
2023-04-19T21:22:21.019Z,12.60
2023-04-19T21:24:48.302Z,12.60
2023-04-19T21:27:18.115Z,12.50
2023-04-19T21:29:47.877Z,12.60
2023-04-19T21:32:15.332Z,12.50
2023-04-19T21:34:46.101Z,12.60
2023-04-19T21:37:16.452Z,12.50
2023-04-19T21:39:46.181Z,12.60
2023-04-19T21:42:13.613Z,12.60
2023-04-19T21:44:41.063Z,12.60
2023-04-19T21:47:09.789Z,12.60
2023-04-19T21:49:39.574Z,12.60
2023-04-19T21:52:07.735Z,12.60
2023-04-19T21:54:35.223Z,12.60
2023-04-19T21:57:02.921Z,12.60
2023-04-19T21:59:33.111Z,12.60
2023-04-19T22:02:01.897Z,12.60
2023-04-19T22:04:32.595Z,12.60
2023-04-19T22:07:03.085Z,12.60
2023-04-19T22:09:31.049Z,12.60
2023-04-19T22:12:01.207Z,12.60
2023-04-19T22:14:28.566Z,12.60
2023-04-19T22:16:56.538Z,12.60
2023-04-19T22:19:24.801Z,12.60
2023-04-19T22:21:53.523Z,12.60
2023-04-19T22:24:23.806Z,12.60
2023-04-19T22:26:53.682Z,12.60
2023-04-19T22:29:21.036Z,12.60
2023-04-19T22:31:48.487Z,12.60
2023-04-19T22:34:16.093Z,12.60
2023-04-19T22:36:43.371Z,12.60
2023-04-19T22:39:13.874Z,12.60
2023-04-19T22:41:43.385Z,12.60
2023-04-19T22:44:10.748Z,12.60
2023-04-19T22:46:38.116Z,12.60
2023-04-19T22:49:05.663Z,12.60
2023-04-19T22:51:36.771Z,12.60
2023-04-19T22:54:06.700Z,12.60
2023-04-19T22:56:34.056Z,12.60
2023-04-19T22:59:01.373Z,12.50
2023-04-19T23:01:33.767Z,12.50
2023-04-19T23:04:01.101Z,12.50
2023-04-19T23:06:29.080Z,12.50
2023-04-19T23:09:00.616Z,12.50
2023-04-19T23:11:32.234Z,12.50
2023-04-19T23:14:01.988Z,12.50
2023-04-19T23:16:29.230Z,12.50
2023-04-19T23:19:00.638Z,12.50
2023-04-19T23:21:30.020Z,12.50
2023-04-19T23:23:58.201Z,12.50
2023-04-19T23:26:26.072Z,12.50
2023-04-19T23:28:53.383Z,12.50
2023-04-19T23:31:20.743Z,12.40
2023-04-19T23:33:50.900Z,12.40
2023-04-19T23:36:18.123Z,12.40
2023-04-19T23:38:45.657Z,12.50
2023-04-19T23:41:17.539Z,12.40
2023-04-19T23:43:48.350Z,12.40
2023-04-19T23:46:15.738Z,12.40
2023-04-19T23:48:43.143Z,12.50
2023-04-19T23:51:12.541Z,12.40
2023-04-19T23:53:42.273Z,12.40
2023-04-19T23:56:12.424Z,12.40
2023-04-19T23:58:41.925Z,12.40
